createdAt,value
2018-09-15T00:01:26.490Z,4.78
2018-09-15T00:03:54.623Z,4.90
2018-09-15T00:06:22.767Z,4.70
2018-09-15T00:08:50.920Z,5.37
2018-09-15T00:11:19.094Z,4.77
2018-09-15T00:13:47.579Z,5.10
2018-09-15T00:16:15.777Z,6.07
2018-09-15T00:18:43.984Z,5.60
2018-09-15T00:21:12.125Z,5.97
2018-09-15T00:23:40.271Z,5.10
2018-09-15T00:26:08.411Z,5.85
2018-09-15T00:28:36.561Z,5.80
2018-09-15T00:31:04.778Z,6.40
2018-09-15T00:33:32.916Z,5.35
2018-09-15T00:36:01.093Z,5.90
2018-09-15T00:38:29.252Z,5.37
2018-09-15T00:40:57.405Z,5.33
2018-09-15T00:43:25.738Z,5.78
2018-09-15T00:45:53.887Z,5.30
2018-09-15T00:48:22.056Z,5.30
2018-09-15T00:50:50.210Z,5.33
2018-09-15T00:53:18.359Z,5.22
2018-09-15T00:55:46.554Z,5.78
2018-09-15T00:58:14.767Z,5.90
2018-09-15T01:00:42.913Z,6.22
2018-09-15T01:03:11.090Z,6.10
2018-09-15T01:05:39.222Z,5.87
2018-09-15T01:08:07.355Z,5.60
2018-09-15T01:10:35.513Z,6.72
2018-09-15T01:13:03.659Z,5.50
2018-09-15T01:15:31.802Z,5.73
2018-09-15T01:17:59.939Z,5.27
2018-09-15T01:20:28.078Z,5.92
2018-09-15T01:22:56.248Z,5.75
2018-09-15T01:25:24.404Z,5.60
2018-09-15T01:27:52.571Z,5.25
2018-09-15T01:30:20.722Z,6.40
2018-09-15T01:32:48.955Z,5.67
2018-09-15T01:35:17.127Z,6.07
2018-09-15T01:37:45.323Z,5.83
2018-09-15T01:40:13.473Z,5.72
2018-09-15T01:42:41.644Z,5.72
2018-09-15T01:45:09.798Z,6.28
2018-09-15T01:47:37.949Z,6.03
2018-09-15T01:50:06.099Z,5.90
2018-09-15T01:52:34.287Z,5.40
2018-09-15T01:55:02.453Z,5.40
2018-09-15T01:57:30.694Z,6.17
2018-09-15T01:59:58.759Z,5.63
2018-09-15T02:02:26.951Z,5.63
2018-09-15T02:04:55.243Z,5.72
2018-09-15T02:07:23.396Z,5.83
2018-09-15T02:09:51.561Z,5.57
2018-09-15T02:12:19.700Z,6.10
2018-09-15T02:14:47.871Z,6.05
2018-09-15T02:17:16.019Z,6.07
2018-09-15T02:19:44.191Z,6.17
2018-09-15T02:22:12.366Z,5.40
2018-09-15T02:24:40.531Z,6.78
2018-09-15T02:27:08.711Z,4.83
2018-09-15T02:29:36.834Z,5.03
2018-09-15T02:32:04.990Z,5.42
2018-09-15T02:34:33.151Z,5.50
2018-09-15T02:37:01.395Z,5.20
2018-09-15T02:39:29.540Z,5.72
2018-09-15T02:41:57.692Z,5.45
2018-09-15T02:44:25.839Z,4.77
2018-09-15T02:46:54.030Z,5.25
2018-09-15T02:49:22.192Z,5.80
2018-09-15T02:51:50.359Z,5.22
2018-09-15T02:54:18.517Z,5.27
2018-09-15T02:56:46.656Z,5.50
2018-09-15T02:59:14.790Z,5.60
2018-09-15T03:01:42.935Z,5.72
2018-09-15T03:04:11.153Z,5.80
2018-09-15T03:06:39.313Z,5.33
2018-09-15T03:09:09.131Z,5.72
2018-09-15T03:11:37.329Z,5.67
2018-09-15T03:14:05.477Z,6.22
2018-09-15T03:16:33.618Z,5.83
2018-09-15T03:19:01.800Z,5.25
2018-09-15T03:21:29.935Z,5.85
2018-09-15T03:23:58.111Z,13.45
2018-09-15T03:26:26.251Z,14.43
2018-09-15T03:28:54.426Z,14.65
2018-09-15T03:31:22.589Z,11.93
2018-09-15T03:33:50.730Z,11.18
2018-09-15T03:36:18.887Z,11.30
2018-09-15T03:38:47.011Z,7.95
2018-09-15T03:41:15.166Z,7.53
2018-09-15T03:43:43.305Z,6.17
2018-09-15T03:46:11.448Z,6.28
2018-09-15T03:48:39.588Z,7.00
2018-09-15T03:51:07.786Z,5.80
2018-09-15T03:53:35.920Z,6.55
2018-09-15T03:56:04.086Z,6.67
2018-09-15T03:58:32.227Z,6.37
2018-09-15T04:01:00.372Z,6.20
2018-09-15T04:03:28.498Z,5.47
2018-09-15T04:05:56.641Z,5.17
2018-09-15T04:08:24.823Z,5.47
2018-09-15T04:10:52.967Z,6.03
2018-09-15T04:13:21.112Z,5.30
2018-09-15T04:15:49.290Z,4.65
2018-09-15T04:18:17.591Z,4.85
2018-09-15T04:20:47.534Z,6.33
2018-09-15T04:23:16.114Z,5.10
2018-09-15T04:25:44.870Z,6.12
2018-09-15T04:28:13.009Z,6.87
2018-09-15T04:30:41.659Z,6.58
2018-09-15T04:33:10.138Z,5.50
2018-09-15T04:35:38.530Z,5.10
2018-09-15T04:38:06.801Z,5.30
2018-09-15T04:40:34.949Z,6.85
2018-09-15T04:43:03.107Z,5.40
2018-09-15T04:45:31.316Z,5.05
2018-09-15T04:47:59.429Z,5.20
2018-09-15T04:50:27.585Z,5.70
2018-09-15T04:52:55.731Z,5.30
2018-09-15T04:55:23.862Z,4.67
2018-09-15T04:57:51.995Z,4.85
2018-09-15T05:00:20.143Z,4.65
2018-09-15T05:02:48.376Z,5.50
2018-09-15T05:05:16.499Z,6.35
2018-09-15T05:07:44.627Z,5.50
2018-09-15T05:10:12.810Z,5.28
2018-09-15T05:12:41.041Z,4.60
2018-09-15T05:15:09.136Z,5.05
2018-09-15T05:17:37.286Z,5.00
2018-09-15T05:20:05.529Z,4.37
2018-09-15T05:22:33.668Z,5.03
2018-09-15T05:25:01.816Z,4.47
2018-09-15T05:27:29.951Z,5.65
2018-09-15T05:29:58.091Z,5.72
2018-09-15T05:32:26.219Z,5.55
2018-09-15T05:34:54.363Z,5.72
2018-09-15T05:37:22.512Z,6.05
2018-09-15T05:39:50.727Z,5.20
2018-09-15T05:42:18.872Z,5.47
2018-09-15T05:44:46.989Z,5.35
2018-09-15T05:47:15.131Z,6.37
2018-09-15T05:49:43.325Z,4.92
2018-09-15T05:52:11.411Z,4.83
2018-09-15T05:54:39.538Z,4.75
2018-09-15T05:57:07.694Z,4.78
2018-09-15T05:59:35.844Z,4.15
2018-09-15T06:02:03.992Z,5.05
2018-09-15T06:04:38.942Z,5.20
2018-09-15T06:07:07.079Z,5.33
2018-09-15T06:09:35.215Z,5.25
2018-09-15T06:12:03.355Z,4.72
2018-09-15T06:14:31.493Z,5.50
2018-09-15T06:16:59.623Z,4.50
2018-09-15T06:19:27.747Z,5.00
2018-09-15T06:21:55.883Z,3.92
2018-09-15T06:24:24.305Z,4.47
2018-09-15T06:26:52.444Z,3.52
2018-09-15T06:29:20.589Z,4.97
2018-09-15T06:31:48.804Z,3.83
2018-09-15T06:34:18.228Z,3.98
2018-09-15T06:36:46.394Z,3.95
2018-09-15T06:39:14.557Z,4.60
2018-09-15T06:41:42.690Z,4.00
2018-09-15T06:44:10.816Z,4.72
2018-09-15T06:46:38.965Z,4.20
2018-09-15T06:49:07.143Z,4.60
2018-09-15T06:51:35.339Z,3.60
2018-09-15T06:54:03.484Z,4.20
2018-09-15T06:56:31.638Z,3.00
2018-09-15T06:59:00.603Z,3.60
2018-09-15T07:01:28.731Z,3.20
2018-09-15T07:03:56.862Z,3.17
2018-09-15T07:06:25.017Z,3.87
2018-09-15T07:08:53.152Z,3.23
2018-09-15T07:11:21.319Z,4.60
2018-09-15T07:13:49.470Z,3.47
2018-09-15T07:16:17.603Z,2.70
2018-09-15T07:18:45.723Z,2.23
2018-09-15T07:21:13.893Z,2.30
2018-09-15T07:23:42.052Z,2.27
2018-09-15T07:26:10.162Z,1.60
2018-09-15T07:28:38.294Z,1.87
2018-09-15T07:31:19.918Z,1.90
2018-09-15T07:33:48.232Z,1.83
2018-09-15T07:36:16.403Z,1.80
2018-09-15T07:38:44.536Z,2.20
2018-09-15T07:41:12.662Z,1.87
2018-09-15T07:43:40.860Z,1.83
2018-09-15T07:46:09.012Z,1.60
2018-09-15T07:48:37.161Z,1.97
2018-09-15T07:51:05.468Z,2.00
2018-09-15T07:53:33.618Z,2.00
2018-09-15T07:56:01.770Z,1.87
2018-09-15T07:58:29.928Z,2.07
2018-09-15T08:00:58.051Z,2.00
2018-09-15T08:03:26.206Z,2.43
2018-09-15T08:05:54.380Z,2.30
2018-09-15T08:08:22.524Z,2.07
2018-09-15T08:10:50.706Z,1.77
2018-09-15T08:13:18.842Z,2.07
2018-09-15T08:15:46.985Z,2.40
2018-09-15T08:18:15.145Z,2.43
2018-09-15T08:20:43.288Z,2.13
2018-09-15T08:23:11.403Z,1.93
2018-09-15T08:25:39.542Z,1.97
2018-09-15T08:28:07.674Z,2.20
2018-09-15T08:30:35.827Z,1.90
2018-09-15T08:33:03.963Z,2.20
2018-09-15T08:35:32.144Z,2.10
2018-09-15T08:38:00.432Z,2.67
2018-09-15T08:40:28.551Z,2.30
2018-09-15T08:42:56.671Z,2.30
2018-09-15T08:45:24.782Z,2.57
2018-09-15T08:47:52.905Z,2.13
2018-09-15T08:50:21.067Z,2.50
2018-09-15T08:52:49.184Z,2.57
2018-09-15T08:55:17.307Z,3.00
2018-09-15T08:57:45.428Z,2.70
2018-09-15T09:00:13.567Z,2.33
2018-09-15T09:02:41.730Z,2.57
2018-09-15T09:05:09.888Z,2.10
2018-09-15T09:07:41.872Z,2.30
2018-09-15T09:10:10.027Z,1.93
2018-09-15T09:12:38.142Z,2.77
2018-09-15T09:15:06.267Z,1.60
2018-09-15T09:17:34.406Z,1.80
2018-09-15T09:20:04.718Z,1.90
2018-09-15T09:22:32.935Z,2.03
2018-09-15T09:25:01.047Z,1.70
2018-09-15T09:27:44.263Z,2.10
2018-09-15T09:30:13.987Z,1.60
2018-09-15T09:32:42.124Z,2.30
2018-09-15T09:35:10.256Z,1.97
2018-09-15T09:37:38.601Z,1.80
2018-09-15T09:40:06.815Z,2.20
2018-09-15T09:42:34.948Z,2.63
2018-09-15T09:45:03.082Z,2.70
2018-09-15T09:47:31.208Z,1.97
2018-09-15T09:49:59.339Z,1.27
2018-09-15T09:52:27.501Z,1.97
2018-09-15T09:54:55.662Z,2.27
2018-09-15T09:57:23.900Z,2.60
2018-09-15T09:59:52.044Z,1.90
2018-09-15T10:02:23.006Z,1.70
2018-09-15T10:04:51.371Z,2.83
2018-09-15T10:07:19.691Z,1.40
2018-09-15T10:09:47.867Z,1.53
2018-09-15T10:12:16.167Z,2.50
2018-09-15T10:14:44.322Z,1.63
2018-09-15T10:17:12.458Z,3.20
2018-09-15T10:19:40.592Z,2.07
2018-09-15T10:22:08.722Z,2.20
2018-09-15T10:24:36.871Z,2.87
2018-09-15T10:27:05.046Z,2.47
2018-09-15T10:29:33.188Z,2.33
2018-09-15T10:32:01.400Z,3.23
2018-09-15T10:34:29.467Z,3.03
2018-09-15T10:36:57.621Z,2.40
2018-09-15T10:39:25.794Z,1.80
2018-09-15T10:41:53.942Z,2.13
2018-09-15T10:44:22.087Z,2.30
2018-09-15T10:46:50.253Z,2.50
2018-09-15T10:49:18.463Z,2.10
2018-09-15T10:51:46.615Z,3.20
2018-09-15T10:54:14.751Z,2.10
2018-09-15T10:56:42.922Z,2.30
2018-09-15T10:59:11.070Z,2.37
2018-09-15T11:01:39.231Z,2.50
2018-09-15T11:04:07.431Z,2.10
2018-09-15T11:06:35.579Z,2.07
2018-09-15T11:09:05.095Z,2.10
2018-09-15T11:11:33.242Z,1.77
2018-09-15T11:14:01.379Z,2.40
2018-09-15T11:16:29.523Z,2.33
2018-09-15T11:18:57.707Z,2.63
2018-09-15T11:21:25.853Z,2.03
2018-09-15T11:23:54.824Z,2.03
2018-09-15T11:26:26.097Z,2.33
2018-09-15T11:28:54.354Z,2.43
2018-09-15T11:31:22.519Z,2.50
2018-09-15T11:33:50.634Z,2.93
2018-09-15T11:36:18.969Z,2.07
2018-09-15T11:38:47.095Z,2.10
2018-09-15T11:41:15.248Z,1.90
2018-09-15T11:43:43.401Z,1.80
2018-09-15T11:46:11.550Z,1.93
2018-09-15T11:48:39.685Z,1.57
2018-09-15T11:51:07.823Z,2.70
2018-09-15T11:53:35.969Z,1.93
2018-09-15T11:56:04.107Z,1.83
2018-09-15T11:58:32.248Z,2.03
2018-09-15T12:01:02.364Z,1.60
2018-09-15T12:03:30.484Z,1.87
2018-09-15T12:05:58.708Z,2.10
2018-09-15T12:08:26.891Z,2.47
2018-09-15T12:10:55.035Z,2.00
2018-09-15T12:13:23.190Z,2.30
2018-09-15T12:15:51.314Z,1.83
2018-09-15T12:18:19.460Z,1.83
2018-09-15T12:20:47.607Z,2.63
2018-09-15T12:23:15.746Z,1.97
2018-09-15T12:25:43.899Z,1.83
2018-09-15T12:28:12.043Z,2.43
2018-09-15T12:30:40.175Z,2.73
2018-09-15T12:33:08.339Z,1.73
2018-09-15T12:35:36.489Z,1.90
2018-09-15T12:38:04.630Z,2.20
2018-09-15T12:40:32.779Z,2.07
2018-09-15T12:43:00.918Z,1.53
2018-09-15T12:45:29.059Z,2.07
2018-09-15T12:47:57.204Z,1.50
2018-09-15T12:50:25.344Z,1.70
2018-09-15T12:52:53.487Z,1.57
2018-09-15T12:55:21.707Z,1.40
2018-09-15T12:57:49.944Z,1.70
2018-09-15T13:00:18.025Z,1.80
2018-09-15T13:02:46.196Z,2.17
2018-09-15T13:05:14.340Z,1.83
2018-09-15T13:07:42.463Z,2.13
2018-09-15T13:10:10.619Z,1.67
2018-09-15T13:12:38.772Z,2.10
2018-09-15T13:15:07.018Z,1.40
2018-09-15T13:17:35.172Z,2.13
2018-09-15T13:20:03.331Z,2.30
2018-09-15T13:22:35.678Z,2.67
2018-09-15T13:25:03.951Z,2.53
2018-09-15T13:27:32.075Z,2.07
2018-09-15T13:30:00.327Z,1.83
2018-09-15T13:32:28.442Z,1.57
2018-09-15T13:34:56.563Z,1.93
2018-09-15T13:37:24.711Z,2.20
2018-09-15T13:39:52.846Z,1.70
2018-09-15T13:42:20.990Z,1.50
2018-09-15T13:44:49.151Z,1.90
2018-09-15T13:47:17.432Z,1.83
2018-09-15T13:49:45.563Z,1.90
2018-09-15T13:52:13.782Z,1.67
2018-09-15T13:54:41.914Z,1.37
2018-09-15T13:57:10.068Z,1.60
2018-09-15T13:59:38.230Z,1.33
2018-09-15T14:02:06.388Z,1.63
2018-09-15T14:04:34.543Z,1.33
2018-09-15T14:07:02.682Z,1.20
2018-09-15T14:09:30.807Z,1.37
2018-09-15T14:11:59.018Z,1.80
2018-09-15T14:14:27.135Z,1.10
2018-09-15T14:16:55.276Z,1.33
2018-09-15T14:19:23.430Z,1.07
2018-09-15T14:21:51.684Z,1.40
2018-09-15T14:24:19.820Z,1.23
2018-09-15T14:26:47.996Z,1.53
2018-09-15T14:29:16.216Z,1.17
2018-09-15T14:31:44.352Z,1.63
2018-09-15T14:34:12.477Z,1.73
2018-09-15T14:36:40.627Z,1.33
2018-09-15T14:39:09.763Z,1.70
2018-09-15T14:41:37.943Z,1.27
2018-09-15T14:44:06.100Z,1.30
2018-09-15T14:46:34.258Z,1.73
2018-09-15T14:49:02.434Z,1.53
2018-09-15T14:51:30.590Z,1.40
2018-09-15T14:54:04.735Z,13.87
2018-09-15T14:56:32.904Z,5.43
2018-09-15T14:59:01.054Z,18.27
2018-09-15T15:01:29.241Z,1.83
2018-09-15T15:03:57.335Z,1.37
2018-09-15T15:06:25.463Z,1.13
2018-09-15T15:08:53.620Z,1.50
2018-09-15T15:11:21.759Z,1.60
2018-09-15T15:13:49.899Z,1.50
2018-09-15T15:16:18.048Z,1.57
2018-09-15T15:18:46.181Z,1.37
2018-09-15T15:21:14.323Z,1.43
2018-09-15T15:23:42.612Z,1.40
2018-09-15T15:26:10.811Z,1.47
2018-09-15T15:28:38.914Z,1.87
2018-09-15T15:31:07.026Z,2.07
2018-09-15T15:33:35.192Z,1.23
2018-09-15T15:36:03.350Z,1.40
2018-09-15T15:38:31.571Z,1.63
2018-09-15T15:40:59.902Z,2.17
2018-09-15T15:43:28.098Z,1.33
2018-09-15T15:45:56.228Z,1.40
2018-09-15T15:48:24.346Z,1.83
2018-09-15T15:50:52.491Z,1.73
2018-09-15T15:53:20.662Z,2.57
2018-09-15T15:55:48.841Z,2.10
2018-09-15T15:58:17.060Z,2.57
2018-09-15T16:00:45.077Z,2.27
2018-09-15T16:03:13.211Z,1.90
2018-09-15T16:05:41.349Z,2.33
2018-09-15T16:08:09.508Z,2.23
2018-09-15T16:10:37.643Z,1.80
2018-09-15T16:13:05.821Z,2.00
2018-09-15T16:15:34.081Z,1.53
2018-09-15T16:18:02.280Z,1.60
2018-09-15T16:20:30.415Z,2.10
2018-09-15T16:22:58.546Z,2.27
2018-09-15T16:28:20.285Z,1.50
2018-09-15T16:30:48.596Z,2.00
2018-09-15T16:33:16.727Z,1.73
2018-09-15T16:35:44.870Z,1.50
2018-09-15T16:38:13.018Z,2.07
2018-09-15T16:40:41.229Z,6.70
2018-09-15T16:43:09.310Z,11.37
2018-09-15T16:45:37.455Z,13.57
2018-09-15T16:48:05.815Z,4.50
2018-09-15T16:50:33.998Z,2.00
2018-09-15T16:53:02.159Z,2.13
2018-09-15T16:55:31.351Z,2.57
2018-09-15T16:57:59.491Z,2.00
2018-09-15T17:00:27.635Z,2.80
2018-09-15T17:02:55.788Z,3.40
2018-09-15T17:05:23.992Z,3.13
2018-09-15T17:07:52.150Z,2.30
2018-09-15T17:10:20.317Z,5.50
2018-09-15T17:12:48.458Z,5.17
2018-09-15T17:15:16.947Z,2.20
2018-09-15T17:17:45.108Z,1.93
2018-09-15T17:20:13.272Z,1.60
2018-09-15T17:22:41.406Z,2.13
2018-09-15T17:25:09.571Z,3.70
2018-09-15T17:27:37.703Z,3.00
2018-09-15T17:30:05.996Z,3.20
2018-09-15T17:32:34.143Z,4.23
2018-09-15T17:35:02.306Z,2.27
2018-09-15T17:37:32.666Z,2.33
2018-09-15T17:40:00.791Z,1.90
2018-09-15T17:42:28.927Z,1.53
2018-09-15T17:44:57.059Z,1.60
2018-09-15T17:47:25.206Z,1.93
2018-09-15T17:49:53.339Z,2.10
2018-09-15T17:52:21.502Z,1.93
2018-09-15T17:54:49.764Z,1.43
2018-09-15T17:57:17.763Z,1.63
2018-09-15T17:59:46.137Z,2.30
2018-09-15T18:02:18.357Z,1.70
2018-09-15T18:04:46.484Z,1.93
2018-09-15T18:07:14.603Z,1.80
2018-09-15T18:09:42.984Z,1.97
2018-09-15T18:12:11.119Z,2.10
2018-09-15T18:14:39.827Z,2.47
2018-09-15T18:17:08.002Z,1.50
2018-09-15T18:19:36.201Z,1.80
2018-09-15T18:22:04.366Z,2.00
2018-09-15T18:24:36.286Z,2.03
2018-09-15T18:27:05.502Z,2.00
2018-09-15T18:29:33.635Z,1.72
2018-09-15T18:32:03.799Z,1.90
2018-09-15T18:34:31.964Z,2.25
2018-09-15T18:37:04.142Z,1.87
2018-09-15T18:39:32.403Z,1.65
2018-09-15T18:42:00.539Z,1.75
2018-09-15T18:44:28.667Z,1.50
2018-09-15T18:46:56.815Z,1.80
2018-09-15T18:49:24.979Z,2.02
2018-09-15T18:51:53.121Z,1.75
2018-09-15T18:54:21.257Z,2.00
2018-09-15T18:56:49.406Z,1.98
2018-09-15T18:59:17.550Z,1.70
2018-09-15T19:01:45.691Z,2.30
2018-09-15T19:04:13.891Z,4.03
2018-09-15T19:06:42.031Z,3.17
2018-09-15T19:09:11.412Z,4.20
2018-09-15T19:11:40.075Z,4.40
2018-09-15T19:14:08.332Z,4.50
2018-09-15T19:16:36.483Z,3.00
2018-09-15T19:19:04.608Z,2.72
2018-09-15T19:21:32.795Z,2.65
2018-09-15T19:24:01.048Z,2.22
2018-09-15T19:26:29.275Z,2.85
2018-09-15T19:28:57.547Z,3.55
2018-09-15T19:31:26.888Z,3.33
2018-09-15T19:33:55.044Z,3.50
2018-09-15T19:36:23.203Z,3.40
2018-09-15T19:38:51.383Z,3.77
2018-09-15T19:41:19.637Z,3.15
2018-09-15T19:43:47.828Z,2.50
2018-09-15T19:46:16.018Z,3.02
2018-09-15T19:48:44.138Z,2.45
2018-09-15T19:51:12.301Z,2.92
2018-09-15T19:53:40.476Z,5.20
2018-09-15T19:56:08.620Z,7.25
2018-09-15T19:58:36.764Z,30.90
2018-09-15T20:01:04.910Z,33.95
2018-09-15T20:03:33.042Z,34.73
2018-09-15T20:06:01.222Z,25.62
2018-09-15T20:08:29.360Z,20.52
2018-09-15T20:10:57.568Z,21.02
2018-09-15T20:13:25.742Z,18.52
2018-09-15T20:15:52.906Z,20.60
2018-09-15T20:18:20.074Z,20.15
2018-09-15T20:20:47.242Z,20.88
2018-09-15T20:23:15.399Z,18.87
2018-09-15T20:25:43.650Z,14.60
2018-09-15T20:28:11.901Z,9.78
2018-09-15T20:30:40.035Z,12.53
2018-09-15T20:33:08.266Z,10.53
2018-09-15T20:35:36.443Z,9.90
2018-09-15T20:38:04.642Z,9.73
2018-09-15T20:40:32.851Z,11.40
2018-09-15T20:43:01.005Z,9.60
2018-09-15T20:45:29.170Z,12.00
2018-09-15T20:47:57.396Z,12.30
2018-09-15T20:50:25.558Z,8.85
2018-09-15T20:52:53.706Z,9.83
2018-09-15T20:55:21.862Z,13.72
2018-09-15T20:57:50.014Z,12.50
2018-09-15T21:00:18.160Z,13.00
2018-09-15T21:02:46.295Z,12.95
2018-09-15T21:05:23.157Z,10.38
2018-09-15T21:07:51.267Z,10.03
2018-09-15T21:10:19.382Z,9.20
2018-09-15T21:12:47.537Z,8.58
2018-09-15T21:15:15.646Z,10.32
2018-09-15T21:17:44.592Z,8.60
2018-09-15T21:20:12.731Z,7.53
2018-09-15T21:22:40.890Z,7.40
2018-09-15T21:25:09.022Z,6.85
2018-09-15T21:27:37.168Z,6.95
2018-09-15T21:30:05.650Z,5.42
2018-09-15T21:32:34.778Z,5.03
2018-09-15T21:35:02.940Z,4.80
2018-09-15T21:37:31.091Z,5.97
2018-09-15T21:39:59.188Z,5.67
2018-09-15T21:42:27.355Z,4.87
2018-09-15T21:44:56.571Z,5.22
2018-09-15T21:47:24.803Z,5.28
2018-09-15T21:49:53.064Z,4.87
2018-09-15T21:52:21.332Z,4.50
2018-09-15T21:54:49.461Z,6.60
2018-09-15T21:57:17.632Z,11.28
2018-09-15T21:59:45.778Z,13.10
2018-09-15T22:04:38.781Z,10.93
2018-09-15T22:07:07.371Z,12.33
2018-09-15T22:09:41.409Z,10.90
2018-09-15T22:12:10.983Z,13.35
2018-09-15T22:14:39.355Z,16.57
2018-09-15T22:17:07.854Z,20.15
2018-09-15T22:19:36.482Z,19.40
2018-09-15T22:22:05.005Z,9.93
2018-09-15T22:24:33.176Z,9.48
2018-09-15T22:27:01.512Z,12.33
2018-09-15T22:29:30.734Z,5.85
2018-09-15T22:31:58.939Z,7.15
2018-09-15T22:34:27.167Z,8.65
2018-09-15T22:36:55.365Z,7.60
2018-09-15T22:39:23.829Z,7.58
2018-09-15T22:41:52.353Z,7.15
2018-09-15T22:44:21.121Z,6.25
2018-09-15T22:46:49.811Z,5.15
2018-09-15T22:49:19.054Z,5.45
2018-09-15T22:51:48.106Z,5.05
2018-09-15T22:54:21.818Z,5.37
2018-09-15T22:56:50.351Z,4.75
2018-09-15T22:59:19.602Z,4.22
2018-09-15T23:01:49.588Z,4.08
2018-09-15T23:04:18.386Z,4.05
2018-09-15T23:06:47.579Z,4.10
2018-09-15T23:09:17.643Z,4.70
2018-09-15T23:11:48.029Z,4.00
2018-09-15T23:14:20.784Z,4.92
2018-09-15T23:16:49.751Z,4.50
2018-09-15T23:19:19.102Z,5.25
2018-09-15T23:21:48.131Z,4.58
2018-09-15T23:24:18.447Z,5.00
2018-09-15T23:26:47.866Z,5.40
2018-09-15T23:29:17.284Z,4.45
2018-09-15T23:31:46.801Z,5.10
2018-09-15T23:34:16.274Z,4.50
2018-09-15T23:36:45.822Z,5.12
2018-09-15T23:39:15.607Z,5.25
2018-09-15T23:41:44.710Z,4.33
2018-09-15T23:44:13.317Z,4.58
2018-09-15T23:46:44.268Z,3.98
2018-09-15T23:49:12.840Z,4.37
2018-09-15T23:51:41.226Z,4.58
2018-09-15T23:54:09.525Z,4.20
2018-09-15T23:56:38.457Z,3.92
2018-09-15T23:59:07.355Z,4.40
